createdAt,value
2022-08-18T00:01:36.814Z,25.10
2022-08-18T00:04:15.380Z,21.27
2022-08-18T00:06:53.043Z,23.65
2022-08-18T00:09:19.959Z,25.05
2022-08-18T00:11:48.777Z,21.30
2022-08-18T00:14:22.340Z,23.08
2022-08-18T00:16:52.631Z,24.77
2022-08-18T00:19:20.148Z,23.02
2022-08-18T00:22:07.530Z,21.13
2022-08-18T00:24:35.468Z,23.85
2022-08-18T00:27:05.712Z,26.92
2022-08-18T00:29:36.627Z,22.63
2022-08-18T00:32:18.370Z,22.40
2022-08-18T00:34:45.396Z,23.15
2022-08-18T00:37:12.359Z,24.63
2022-08-18T00:39:43.550Z,22.67
2022-08-18T00:42:28.879Z,25.20
2022-08-18T00:45:02.712Z,23.63
2022-08-18T00:47:41.004Z,24.95
2022-08-18T00:50:15.434Z,22.33
2022-08-18T00:52:46.634Z,23.42
2022-08-18T00:55:13.755Z,20.92
2022-08-18T00:57:42.865Z,19.15
2022-08-18T01:00:13.218Z,22.10
2022-08-18T01:02:47.681Z,24.67
2022-08-18T01:05:30.363Z,22.20
2022-08-18T01:07:57.327Z,20.75
2022-08-18T01:10:24.218Z,22.33
2022-08-18T01:12:54.813Z,22.70
2022-08-18T01:15:27.814Z,21.48
2022-08-18T01:18:17.475Z,24.58
2022-08-18T01:21:26.777Z,23.90
2022-08-18T01:23:55.949Z,20.38
2022-08-18T01:26:24.201Z,20.63
2022-08-18T01:28:52.395Z,24.15
2022-08-18T01:31:37.701Z,21.50
2022-08-18T01:34:07.133Z,21.10
2022-08-18T01:36:37.473Z,24.83
2022-08-18T01:39:09.751Z,19.83
2022-08-18T01:41:36.926Z,22.88
2022-08-18T01:44:05.184Z,22.65
2022-08-18T01:46:35.007Z,23.23
2022-08-18T01:49:03.630Z,25.45
2022-08-18T01:51:40.208Z,24.92
2022-08-18T01:54:10.486Z,25.08
2022-08-18T01:56:37.404Z,25.45
2022-08-18T01:59:05.723Z,24.98
2022-08-18T02:01:37.722Z,23.30
2022-08-18T02:07:04.726Z,27.92
2022-08-18T02:09:31.576Z,49.25
2022-08-18T02:11:58.397Z,25.02
2022-08-18T02:14:27.366Z,24.63
2022-08-18T02:17:01.837Z,24.13
2022-08-18T02:19:35.197Z,25.20
2022-08-18T02:22:03.162Z,26.27
2022-08-18T02:24:30.252Z,23.77
2022-08-18T02:26:57.245Z,27.65
2022-08-18T02:29:24.187Z,25.98
2022-08-18T02:31:51.216Z,26.08
2022-08-18T02:34:18.654Z,25.73
2022-08-18T02:36:45.915Z,25.25
2022-08-18T02:39:13.472Z,23.83
2022-08-18T02:41:40.562Z,23.30
2022-08-18T02:44:08.990Z,24.50
2022-08-18T02:46:37.273Z,26.57
2022-08-18T02:49:05.789Z,23.73
2022-08-18T02:51:32.594Z,25.33
2022-08-18T02:53:59.769Z,24.95
2022-08-18T02:56:40.741Z,23.38
2022-08-18T02:59:24.235Z,29.45
2022-08-18T03:01:53.379Z,30.73
2022-08-18T03:04:29.718Z,25.48
2022-08-18T03:07:01.627Z,25.48
2022-08-18T03:09:29.619Z,24.42
2022-08-18T03:11:57.289Z,29.50
2022-08-18T03:14:25.463Z,30.50
2022-08-18T03:16:53.456Z,38.72
2022-08-18T03:19:23.253Z,27.90
2022-08-18T03:21:50.499Z,27.75
2022-08-18T03:24:22.749Z,26.88
2022-08-18T03:26:52.024Z,26.42
2022-08-18T03:29:19.908Z,28.25
2022-08-18T03:31:48.817Z,30.65
2022-08-18T03:34:19.729Z,30.30
2022-08-18T03:36:49.009Z,29.30
2022-08-18T03:39:16.557Z,27.77
2022-08-18T03:41:59.519Z,28.45
2022-08-18T03:44:33.627Z,29.02
2022-08-18T03:47:03.727Z,27.75
2022-08-18T03:49:32.349Z,26.40
2022-08-18T03:52:00.995Z,36.55
2022-08-18T03:54:28.407Z,33.30
2022-08-18T03:56:55.882Z,26.98
2022-08-18T03:59:26.999Z,30.63
2022-08-18T04:01:55.293Z,29.63
2022-08-18T04:04:25.431Z,27.97
2022-08-18T04:06:58.538Z,29.88
2022-08-18T04:09:27.888Z,27.08
2022-08-18T04:11:55.735Z,27.10
2022-08-18T04:14:25.206Z,26.90
2022-08-18T04:16:53.092Z,29.45
2022-08-18T04:19:26.782Z,33.33
2022-08-18T04:21:58.078Z,26.63
2022-08-18T04:24:28.183Z,25.67
2022-08-18T04:27:01.989Z,24.42
2022-08-18T04:29:29.244Z,27.52
2022-08-18T04:31:56.218Z,29.77
2022-08-18T04:34:23.917Z,29.60
2022-08-18T04:36:54.055Z,28.02
2022-08-18T04:39:22.858Z,28.67
2022-08-18T04:41:50.074Z,25.65
2022-08-18T04:44:18.261Z,29.35
2022-08-18T04:46:51.991Z,29.50
2022-08-18T04:49:21.393Z,26.98
2022-08-18T04:54:56.076Z,26.60
2022-08-18T04:57:24.018Z,30.05
2022-08-18T04:59:52.436Z,28.63
2022-08-18T05:02:21.944Z,28.10
2022-08-18T05:04:48.993Z,30.20
2022-08-18T05:07:19.633Z,28.65
2022-08-18T05:09:47.043Z,27.13
2022-08-18T05:12:15.599Z,28.38
2022-08-18T05:14:44.671Z,27.70
2022-08-18T05:17:15.112Z,26.85
2022-08-18T05:19:44.610Z,28.48
2022-08-18T05:22:17.777Z,30.42
2022-08-18T05:24:45.978Z,27.35
2022-08-18T05:27:13.727Z,28.15
2022-08-18T05:29:41.666Z,32.22
2022-08-18T05:32:40.923Z,27.85
2022-08-18T05:35:12.235Z,28.63
2022-08-18T05:38:02.034Z,28.58
2022-08-18T05:40:31.953Z,27.35
2022-08-18T05:43:01.200Z,26.48
2022-08-18T05:45:28.453Z,25.02
2022-08-18T05:48:02.426Z,24.67
2022-08-18T05:50:32.267Z,25.63
2022-08-18T05:53:13.251Z,29.02
2022-08-18T05:56:10.551Z,25.17
2022-08-18T05:58:44.492Z,24.02
2022-08-18T06:01:19.405Z,25.10
2022-08-18T06:03:49.018Z,28.20
2022-08-18T06:06:21.317Z,26.58
2022-08-18T06:09:23.847Z,32.67
2022-08-18T06:11:51.161Z,33.30
2022-08-18T06:14:18.987Z,29.77
2022-08-18T06:17:15.303Z,32.40
2022-08-18T06:20:01.689Z,29.75
2022-08-18T06:22:52.399Z,33.22
2022-08-18T06:25:48.303Z,32.22
2022-08-18T06:28:16.994Z,28.23
2022-08-18T06:30:47.277Z,34.75
2022-08-18T06:33:40.991Z,31.10
2022-08-18T06:36:14.325Z,34.42
2022-08-18T06:39:02.716Z,31.58
2022-08-18T06:41:42.905Z,34.33
2022-08-18T06:44:33.589Z,36.03
2022-08-18T06:47:20.878Z,34.10
2022-08-18T06:50:06.450Z,28.10
2022-08-18T06:52:39.676Z,35.25
2022-08-18T06:55:08.958Z,28.38
2022-08-18T07:02:58.284Z,22.73
2022-08-18T07:05:31.247Z,25.10
2022-08-18T07:08:11.154Z,18.48
2022-08-18T07:10:45.081Z,18.08
2022-08-18T07:13:23.007Z,20.80
2022-08-18T07:15:50.551Z,14.50
2022-08-18T07:18:24.589Z,11.25
2022-08-18T07:21:00.859Z,10.65
2022-08-18T07:23:33.802Z,14.48
2022-08-18T07:26:15.563Z,12.95
2022-08-18T07:28:45.433Z,12.02
2022-08-18T07:31:35.091Z,13.43
2022-08-18T07:34:20.828Z,11.38
2022-08-18T07:36:55.039Z,11.00
2022-08-18T07:39:36.625Z,9.68
2022-08-18T07:42:11.283Z,13.00
2022-08-18T07:44:46.978Z,12.18
2022-08-18T07:47:20.080Z,11.80
2022-08-18T07:50:16.622Z,13.52
2022-08-18T07:52:54.134Z,12.82
2022-08-18T07:55:28.225Z,12.07
2022-08-18T07:58:15.567Z,12.77
2022-08-18T08:01:00.127Z,16.60
2022-08-18T08:04:02.419Z,17.90
2022-08-18T08:06:38.893Z,19.35
2022-08-18T08:09:37.387Z,23.42
2022-08-18T08:12:24.471Z,20.60
2022-08-18T08:14:59.198Z,17.50
2022-08-18T08:17:42.949Z,16.42
2022-08-18T08:20:09.851Z,15.52
2022-08-18T08:22:49.491Z,13.68
2022-08-18T08:25:45.255Z,15.98
2022-08-18T08:28:50.348Z,13.70
2022-08-18T08:31:39.839Z,15.68
2022-08-18T08:34:15.435Z,13.18
2022-08-18T08:36:45.466Z,12.30
2022-08-18T08:39:14.509Z,14.07
2022-08-18T08:41:47.708Z,13.35
2022-08-18T08:44:18.325Z,12.63
2022-08-18T08:47:00.126Z,10.15
2022-08-18T08:49:41.743Z,13.18
2022-08-18T08:52:23.893Z,10.38
2022-08-18T08:54:56.150Z,9.60
2022-08-18T08:57:28.011Z,9.30
2022-08-18T08:59:56.787Z,10.40
2022-08-18T09:03:13.071Z,7.38
2022-08-18T09:06:04.604Z,8.23
2022-08-18T09:08:39.241Z,7.95
2022-08-18T09:11:09.195Z,7.55
2022-08-18T09:13:57.310Z,7.20
2022-08-18T09:16:27.866Z,8.33
2022-08-18T09:19:13.792Z,7.82
2022-08-18T09:21:53.544Z,5.43
2022-08-18T09:24:38.832Z,6.60
2022-08-18T09:27:22.900Z,8.02
2022-08-18T09:29:57.201Z,7.90
2022-08-18T09:32:25.941Z,7.57
2022-08-18T09:35:29.792Z,8.88
2022-08-18T09:38:20.607Z,8.23
2022-08-18T09:41:25.682Z,7.90
2022-08-18T09:44:11.924Z,7.47
2022-08-18T09:46:47.896Z,6.97
2022-08-18T09:49:27.859Z,7.00
2022-08-18T09:52:24.485Z,7.13
2022-08-18T09:54:58.429Z,7.50
2022-08-18T10:00:33.571Z,6.30
2022-08-18T10:03:02.279Z,5.20
2022-08-18T10:05:31.503Z,5.18
2022-08-18T10:08:14.807Z,6.95
2022-08-18T10:11:09.327Z,6.03
2022-08-18T10:13:49.411Z,6.67
2022-08-18T10:17:04.906Z,6.40
2022-08-18T10:19:39.502Z,7.03
2022-08-18T10:22:09.667Z,7.93
2022-08-18T10:24:56.377Z,6.15
2022-08-18T10:27:49.260Z,4.78
2022-08-18T10:34:05.494Z,5.22
2022-08-18T10:36:53.237Z,6.40
2022-08-18T10:39:27.389Z,5.95
2022-08-18T10:42:05.122Z,5.07
2022-08-18T10:44:37.373Z,6.07
2022-08-18T10:47:12.134Z,4.80
2022-08-18T10:49:46.553Z,5.82
2022-08-18T10:52:33.881Z,5.75
2022-08-18T10:55:17.199Z,6.05
2022-08-18T10:58:08.338Z,7.32
2022-08-18T11:00:51.565Z,4.93
2022-08-18T11:03:51.324Z,5.82
2022-08-18T11:06:23.687Z,8.43
2022-08-18T11:09:01.733Z,6.40
2022-08-18T11:11:41.511Z,4.90
2022-08-18T11:14:27.989Z,4.45
2022-08-18T11:17:04.017Z,6.10
2022-08-18T11:19:42.804Z,5.45
2022-08-18T11:22:32.411Z,4.07
2022-08-18T11:25:01.449Z,6.00
2022-08-18T11:27:37.468Z,5.28
2022-08-18T11:30:09.778Z,5.07
2022-08-18T11:32:55.261Z,3.25
2022-08-18T11:35:34.228Z,4.13
2022-08-18T11:38:12.407Z,2.70
2022-08-18T11:43:41.260Z,3.70
2022-08-18T11:46:29.552Z,2.67
2022-08-18T11:48:59.084Z,4.40
2022-08-18T11:51:32.488Z,3.40
2022-08-18T11:54:23.279Z,5.22
2022-08-18T11:56:50.876Z,6.10
2022-08-18T12:02:18.860Z,4.57
2022-08-18T12:04:52.862Z,3.72
2022-08-18T12:07:36.596Z,3.72
2022-08-18T12:10:28.821Z,4.25
2022-08-18T12:13:00.424Z,5.78
2022-08-18T12:15:43.754Z,3.78
2022-08-18T12:18:18.782Z,3.30
2022-08-18T12:20:58.100Z,3.05
2022-08-18T12:23:25.752Z,4.63
2022-08-18T12:25:52.706Z,4.85
2022-08-18T12:28:22.867Z,3.88
2022-08-18T12:30:56.404Z,4.80
2022-08-18T12:33:34.389Z,3.95
2022-08-18T12:36:15.769Z,6.38
2022-08-18T12:38:44.948Z,3.45
2022-08-18T12:41:23.516Z,3.92
2022-08-18T12:46:37.839Z,5.38
2022-08-18T12:49:16.342Z,4.93
2022-08-18T12:51:44.361Z,4.50
2022-08-18T12:54:12.561Z,3.63
2022-08-18T12:56:41.562Z,4.88
2022-08-18T13:01:39.940Z,5.00
2022-08-18T13:04:12.433Z,4.20
2022-08-18T13:06:59.853Z,4.63
2022-08-18T13:09:35.720Z,3.55
2022-08-18T13:12:19.230Z,5.53
2022-08-18T13:14:46.992Z,2.97
2022-08-18T13:17:29.785Z,2.90
2022-08-18T13:20:05.113Z,2.92
2022-08-18T13:22:33.218Z,3.47
2022-08-18T13:25:05.225Z,5.15
2022-08-18T13:27:36.067Z,2.63
2022-08-18T13:30:29.278Z,3.15
2022-08-18T13:33:02.641Z,4.60
2022-08-18T13:35:37.863Z,4.15
2022-08-18T13:38:14.308Z,3.50
2022-08-18T13:40:50.820Z,3.05
2022-08-18T13:43:21.755Z,2.95
2022-08-18T13:45:53.496Z,3.65
2022-08-18T13:48:24.298Z,5.68
2022-08-18T13:50:56.029Z,2.57
2022-08-18T13:53:24.684Z,4.88
2022-08-18T13:55:53.709Z,3.20
2022-08-18T13:58:21.264Z,2.90
2022-08-18T14:00:54.512Z,3.97
2022-08-18T14:03:42.790Z,3.85
2022-08-18T14:06:11.573Z,3.20
2022-08-18T14:08:40.920Z,3.28
2022-08-18T14:11:09.022Z,4.60
2022-08-18T14:13:38.258Z,2.90
2022-08-18T14:16:18.691Z,3.88
2022-08-18T14:19:09.777Z,2.40
2022-08-18T14:22:02.515Z,2.95
2022-08-18T14:24:49.529Z,2.92
2022-08-18T14:27:18.697Z,3.58
2022-08-18T14:29:48.554Z,3.33
2022-08-18T14:32:28.402Z,2.70
2022-08-18T14:35:34.643Z,3.88
2022-08-18T14:37:51.485Z,1.77
2022-08-18T14:40:20.077Z,3.35
2022-08-18T14:42:55.053Z,17.08
2022-08-18T14:45:28.103Z,13.23
2022-08-18T14:48:07.715Z,4.05
2022-08-18T14:50:40.081Z,4.43
2022-08-18T14:53:17.446Z,3.42
2022-08-18T14:55:47.442Z,4.95
2022-08-18T14:58:16.551Z,3.38
2022-08-18T15:00:49.779Z,2.70
2022-08-18T15:03:30.916Z,4.45
2022-08-18T15:06:00.642Z,2.58
2022-08-18T15:08:35.238Z,3.83
2022-08-18T15:11:03.571Z,2.50
2022-08-18T15:13:30.842Z,2.53
2022-08-18T15:16:01.882Z,4.18
2022-08-18T15:18:29.626Z,4.97
2022-08-18T15:21:34.691Z,1.77
2022-08-18T15:24:24.015Z,4.22
2022-08-18T15:26:57.702Z,4.45
2022-08-18T15:29:27.946Z,5.05
2022-08-18T15:32:05.232Z,2.47
2022-08-18T15:34:47.166Z,2.58
2022-08-18T15:37:22.245Z,2.65
2022-08-18T15:40:01.293Z,4.25
2022-08-18T15:42:29.801Z,2.92
2022-08-18T15:45:00.570Z,3.85
2022-08-18T15:47:40.702Z,5.20
2022-08-18T15:50:25.835Z,4.28
2022-08-18T15:53:03.941Z,2.97
2022-08-18T15:55:37.807Z,3.25
2022-08-18T15:58:10.936Z,4.05
2022-08-18T16:00:42.484Z,3.45
2022-08-18T16:03:14.985Z,3.40
2022-08-18T16:05:53.988Z,4.20
2022-08-18T16:08:25.349Z,4.25
2022-08-18T16:10:54.049Z,6.60
2022-08-18T16:13:21.916Z,4.10
2022-08-18T16:15:49.992Z,4.00
2022-08-18T16:18:20.792Z,6.03
2022-08-18T16:20:47.756Z,4.38
2022-08-18T16:23:17.589Z,3.95
2022-08-18T16:25:45.047Z,5.55
2022-08-18T16:28:13.303Z,4.90
2022-08-18T16:30:40.903Z,3.55
2022-08-18T16:33:08.456Z,4.85
2022-08-18T16:35:37.422Z,6.35
2022-08-18T16:40:36.783Z,6.72
2022-08-18T16:43:04.945Z,3.40
2022-08-18T16:45:33.620Z,5.43
2022-08-18T16:48:01.009Z,4.50
2022-08-18T16:50:28.918Z,5.65
2022-08-18T16:52:57.133Z,6.38
2022-08-18T16:55:24.034Z,4.50
2022-08-18T16:58:13.589Z,6.70
2022-08-18T17:01:01.295Z,5.07
2022-08-18T17:03:46.581Z,6.10
2022-08-18T17:06:17.266Z,3.92
2022-08-18T17:08:44.339Z,6.93
2022-08-18T17:11:16.176Z,4.22
2022-08-18T17:13:43.640Z,4.57
2022-08-18T17:16:11.718Z,7.07
2022-08-18T17:18:39.348Z,4.80
2022-08-18T17:21:08.095Z,5.57
2022-08-18T17:23:39.053Z,5.07
2022-08-18T17:26:17.629Z,7.63
2022-08-18T17:28:53.739Z,3.60
2022-08-18T17:31:24.657Z,4.55
2022-08-18T17:33:57.237Z,4.38
2022-08-18T17:36:33.993Z,4.93
2022-08-18T17:39:04.152Z,4.57
2022-08-18T17:41:31.030Z,4.38
2022-08-18T17:44:00.879Z,3.63
2022-08-18T17:46:37.847Z,6.43
2022-08-18T17:49:48.684Z,11.43
2022-08-18T17:52:36.303Z,6.65
2022-08-18T17:55:16.319Z,5.65
2022-08-18T17:58:21.355Z,6.53
2022-08-18T18:00:48.636Z,7.28
2022-08-18T18:03:15.572Z,7.43
2022-08-18T18:05:49.375Z,6.45
2022-08-18T18:08:17.124Z,7.78
2022-08-18T18:11:04.335Z,6.45
2022-08-18T18:13:33.014Z,5.75
2022-08-18T18:16:19.659Z,6.20
2022-08-18T18:19:01.763Z,5.72
2022-08-18T18:21:57.540Z,4.80
2022-08-18T18:24:24.192Z,6.15
2022-08-18T18:26:52.301Z,5.28
2022-08-18T18:29:29.111Z,6.50
2022-08-18T18:31:58.512Z,4.70
2022-08-18T18:34:30.448Z,4.47
2022-08-18T18:36:59.281Z,4.72
2022-08-18T18:39:37.938Z,6.68
2022-08-18T18:42:18.111Z,6.00
2022-08-18T18:44:57.131Z,6.68
2022-08-18T18:47:24.634Z,6.07
2022-08-18T18:50:03.181Z,6.07
2022-08-18T18:52:46.396Z,6.35
2022-08-18T18:55:27.161Z,7.10
2022-08-18T18:58:16.232Z,5.00
2022-08-18T19:04:02.140Z,5.85
2022-08-18T19:06:57.551Z,5.47
2022-08-18T19:09:50.510Z,5.25
2022-08-18T19:12:41.577Z,9.40
2022-08-18T19:15:14.813Z,4.25
2022-08-18T19:18:05.299Z,5.63
2022-08-18T19:20:41.702Z,5.55
2022-08-18T19:23:44.379Z,7.47
2022-08-18T19:26:17.361Z,5.28
2022-08-18T19:29:12.157Z,5.57
2022-08-18T19:31:40.112Z,7.05
2022-08-18T19:34:16.599Z,5.03
2022-08-18T19:37:00.802Z,6.90
2022-08-18T19:40:03.379Z,5.43
2022-08-18T19:42:51.682Z,5.13
2022-08-18T19:45:36.687Z,5.80
2022-08-18T19:48:26.506Z,6.43
2022-08-18T19:51:00.699Z,7.13
2022-08-18T19:53:36.398Z,8.68
2022-08-18T19:56:35.386Z,7.22
2022-08-18T20:02:05.090Z,8.40
2022-08-18T20:04:38.481Z,10.30
2022-08-18T20:07:49.885Z,7.72
2022-08-18T20:10:27.781Z,8.98
2022-08-18T20:13:00.491Z,7.10
2022-08-18T20:15:28.663Z,9.32
2022-08-18T20:17:58.685Z,8.45
2022-08-18T20:20:31.616Z,7.55
2022-08-18T20:22:59.476Z,7.28
2022-08-18T20:25:43.696Z,7.47
2022-08-18T20:28:13.790Z,7.20
2022-08-18T20:31:06.104Z,8.13
2022-08-18T20:33:38.052Z,8.85
2022-08-18T20:36:28.568Z,7.60
2022-08-18T20:38:58.447Z,7.88
2022-08-18T20:41:47.211Z,7.93
2022-08-18T20:44:29.333Z,7.55
2022-08-18T20:47:18.019Z,9.82
2022-08-18T20:50:12.909Z,8.67
2022-08-18T20:52:49.362Z,9.80
2022-08-18T20:55:55.360Z,8.40
2022-08-18T20:58:27.106Z,7.50
2022-08-18T21:00:57.693Z,8.80
2022-08-18T21:03:36.377Z,10.45
2022-08-18T21:06:04.286Z,6.97
2022-08-18T21:08:34.702Z,9.23
2022-08-18T21:11:04.848Z,9.90
2022-08-18T21:13:39.574Z,10.30
2022-08-18T21:16:38.025Z,7.72
2022-08-18T21:19:13.836Z,10.85
2022-08-18T21:21:47.095Z,10.65
2022-08-18T21:24:50.725Z,13.07
2022-08-18T21:27:30.057Z,9.85
2022-08-18T21:30:15.482Z,10.98
2022-08-18T21:32:44.580Z,10.85
2022-08-18T21:35:34.422Z,11.35
2022-08-18T21:38:05.583Z,14.40
2022-08-18T21:40:48.647Z,12.23
2022-08-18T21:43:49.090Z,12.38
2022-08-18T21:46:28.879Z,12.23
2022-08-18T21:48:59.187Z,12.75
2022-08-18T21:51:31.067Z,13.95
2022-08-18T21:53:59.431Z,14.57
2022-08-18T21:56:30.867Z,16.27
2022-08-18T21:59:24.162Z,15.02
2022-08-18T22:01:54.419Z,14.30
2022-08-18T22:04:27.485Z,17.15
2022-08-18T22:07:02.046Z,14.90
2022-08-18T22:09:50.910Z,14.77
2022-08-18T22:12:53.631Z,16.08
2022-08-18T22:15:25.494Z,16.15
2022-08-18T22:17:57.802Z,16.30
2022-08-18T22:20:39.682Z,15.82
2022-08-18T22:23:32.183Z,19.90
2022-08-18T22:26:14.211Z,16.35
2022-08-18T22:28:54.497Z,18.52
2022-08-18T22:31:23.210Z,20.85
2022-08-18T22:33:51.725Z,19.10
2022-08-18T22:36:23.296Z,18.37
2022-08-18T22:38:52.419Z,19.77
2022-08-18T22:41:20.620Z,17.83
2022-08-18T22:43:49.725Z,17.70
2022-08-18T22:46:24.255Z,18.65
2022-08-18T22:48:52.671Z,20.48
2022-08-18T22:51:23.990Z,24.38
2022-08-18T22:53:51.276Z,24.85
2022-08-18T22:56:33.819Z,24.45
2022-08-18T22:59:07.118Z,24.38
2022-08-18T23:01:46.646Z,23.77
2022-08-18T23:04:15.922Z,26.05
2022-08-18T23:09:15.516Z,23.20
2022-08-18T23:11:44.356Z,22.00
2022-08-18T23:14:12.364Z,23.58
2022-08-18T23:16:39.199Z,24.27
2022-08-18T23:19:06.104Z,22.20
2022-08-18T23:21:34.311Z,23.00
2022-08-18T23:24:07.739Z,24.17
2022-08-18T23:26:36.159Z,22.00
2022-08-18T23:29:05.055Z,22.97
2022-08-18T23:31:32.423Z,25.00
2022-08-18T23:34:00.692Z,24.33
2022-08-18T23:36:29.558Z,24.05
2022-08-18T23:38:56.969Z,22.40
2022-08-18T23:41:24.609Z,24.23
2022-08-18T23:43:51.548Z,21.15
2022-08-18T23:46:25.794Z,22.73
2022-08-18T23:48:53.385Z,21.23
2022-08-18T23:51:32.691Z,22.27
2022-08-18T23:56:29.843Z,23.48
2022-08-18T23:58:57.704Z,24.70
